sensor_id;sensor_type;location;lat;lon;timestamp;P1;durP1;ratioP1;P2;durP2;ratioP2
26690;SDS011;14307;51.718;8.938;2023-03-01T00:01:37;33.97;;;30.50;;
26690;SDS011;14307;51.718;8.938;2023-03-01T00:04:03;32.83;;;29.48;;
26690;SDS011;14307;51.718;8.938;2023-03-01T00:06:30;34.95;;;31.35;;
26690;SDS011;14307;51.718;8.938;2023-03-01T00:08:57;34.67;;;31.02;;
26690;SDS011;14307;51.718;8.938;2023-03-01T00:11:26;34.35;;;30.75;;
26690;SDS011;14307;51.718;8.938;2023-03-01T00:13:56;34.70;;;31.20;;
26690;SDS011;14307;51.718;8.938;2023-03-01T00:16:25;33.85;;;30.33;;
26690;SDS011;14307;51.718;8.938;2023-03-01T00:19:14;30.40;;;27.23;;
26690;SDS011;14307;51.718;8.938;2023-03-01T00:21:43;30.42;;;27.48;;
26690;SDS011;14307;51.718;8.938;2023-03-01T00:24:10;29.30;;;26.30;;
26690;SDS011;14307;51.718;8.938;2023-03-01T00:26:37;30.10;;;27.45;;
26690;SDS011;14307;51.718;8.938;2023-03-01T00:29:04;29.92;;;27.23;;
26690;SDS011;14307;51.718;8.938;2023-03-01T00:31:31;31.13;;;27.90;;
26690;SDS011;14307;51.718;8.938;2023-03-01T00:34:00;30.80;;;27.73;;
26690;SDS011;14307;51.718;8.938;2023-03-01T00:36:30;34.17;;;30.55;;
26690;SDS011;14307;51.718;8.938;2023-03-01T00:39:00;33.97;;;30.40;;
26690;SDS011;14307;51.718;8.938;2023-03-01T00:41:27;45.92;;;33.47;;
26690;SDS011;14307;51.718;8.938;2023-03-01T00:43:54;43.47;;;35.03;;
26690;SDS011;14307;51.718;8.938;2023-03-01T00:46:22;43.60;;;34.00;;
26690;SDS011;14307;51.718;8.938;2023-03-01T00:48:50;41.53;;;34.10;;
26690;SDS011;14307;51.718;8.938;2023-03-01T00:53:46;33.58;;;30.15;;
26690;SDS011;14307;51.718;8.938;2023-03-01T00:56:15;30.45;;;27.63;;
26690;SDS011;14307;51.718;8.938;2023-03-01T00:58:42;30.40;;;27.45;;
26690;SDS011;14307;51.718;8.938;2023-03-01T01:01:10;31.90;;;28.55;;
26690;SDS011;14307;51.718;8.938;2023-03-01T01:06:14;30.60;;;27.67;;
26690;SDS011;14307;51.718;8.938;2023-03-01T01:08:48;31.20;;;28.08;;
26690;SDS011;14307;51.718;8.938;2023-03-01T01:11:16;50.08;;;34.83;;
26690;SDS011;14307;51.718;8.938;2023-03-01T01:13:43;86.43;;;49.30;;
26690;SDS011;14307;51.718;8.938;2023-03-01T01:16:12;102.63;;;56.75;;
26690;SDS011;14307;51.718;8.938;2023-03-01T01:18:39;107.03;;;56.47;;
26690;SDS011;14307;51.718;8.938;2023-03-01T01:21:08;95.25;;;50.58;;
26690;SDS011;14307;51.718;8.938;2023-03-01T01:23:37;86.28;;;49.15;;
26690;SDS011;14307;51.718;8.938;2023-03-01T01:26:06;84.93;;;50.03;;
26690;SDS011;14307;51.718;8.938;2023-03-01T01:28:35;67.18;;;42.60;;
26690;SDS011;14307;51.718;8.938;2023-03-01T01:31:03;60.22;;;38.65;;
26690;SDS011;14307;51.718;8.938;2023-03-01T01:33:31;51.30;;;36.67;;
26690;SDS011;14307;51.718;8.938;2023-03-01T01:35:58;43.47;;;35.50;;
26690;SDS011;14307;51.718;8.938;2023-03-01T01:38:24;39.92;;;32.33;;
26690;SDS011;14307;51.718;8.938;2023-03-01T01:40:51;35.92;;;29.50;;
26690;SDS011;14307;51.718;8.938;2023-03-01T01:43:28;35.70;;;29.35;;
26690;SDS011;14307;51.718;8.938;2023-03-01T01:45:59;40.28;;;30.38;;
26690;SDS011;14307;51.718;8.938;2023-03-01T01:48:37;36.85;;;28.80;;
26690;SDS011;14307;51.718;8.938;2023-03-01T01:51:14;38.20;;;27.48;;
26690;SDS011;14307;51.718;8.938;2023-03-01T01:53:45;32.95;;;26.73;;
26690;SDS011;14307;51.718;8.938;2023-03-01T01:56:16;32.55;;;27.13;;
26690;SDS011;14307;51.718;8.938;2023-03-01T01:58:44;30.90;;;26.42;;
26690;SDS011;14307;51.718;8.938;2023-03-01T02:01:13;32.33;;;26.60;;
26690;SDS011;14307;51.718;8.938;2023-03-01T02:03:40;34.33;;;26.42;;
26690;SDS011;14307;51.718;8.938;2023-03-01T02:08:46;35.13;;;28.02;;
26690;SDS011;14307;51.718;8.938;2023-03-01T02:11:15;29.30;;;26.20;;
26690;SDS011;14307;51.718;8.938;2023-03-01T02:13:47;31.17;;;26.55;;
26690;SDS011;14307;51.718;8.938;2023-03-01T02:16:14;35.50;;;27.30;;
26690;SDS011;14307;51.718;8.938;2023-03-01T02:18:42;32.78;;;26.05;;
26690;SDS011;14307;51.718;8.938;2023-03-01T02:21:17;30.35;;;26.42;;
26690;SDS011;14307;51.718;8.938;2023-03-01T02:23:57;34.65;;;26.95;;
26690;SDS011;14307;51.718;8.938;2023-03-01T02:28:59;30.60;;;26.13;;
26690;SDS011;14307;51.718;8.938;2023-03-01T02:31:26;32.40;;;25.33;;
26690;SDS011;14307;51.718;8.938;2023-03-01T02:34:12;27.52;;;24.38;;
26690;SDS011;14307;51.718;8.938;2023-03-01T02:36:45;28.73;;;25.65;;
26690;SDS011;14307;51.718;8.938;2023-03-01T02:39:32;27.73;;;24.02;;
26690;SDS011;14307;51.718;8.938;2023-03-01T02:42:09;29.77;;;24.45;;
26690;SDS011;14307;51.718;8.938;2023-03-01T02:44:39;29.60;;;25.23;;
26690;SDS011;14307;51.718;8.938;2023-03-01T02:47:05;27.45;;;24.55;;
26690;SDS011;14307;51.718;8.938;2023-03-01T02:49:34;28.50;;;25.70;;
26690;SDS011;14307;51.718;8.938;2023-03-01T02:54:56;30.23;;;26.95;;
26690;SDS011;14307;51.718;8.938;2023-03-01T02:57:36;32.13;;;26.00;;
26690;SDS011;14307;51.718;8.938;2023-03-01T03:00:07;27.35;;;24.48;;
26690;SDS011;14307;51.718;8.938;2023-03-01T03:02:46;28.65;;;25.42;;
26690;SDS011;14307;51.718;8.938;2023-03-01T03:05:18;28.80;;;26.00;;
26690;SDS011;14307;51.718;8.938;2023-03-01T03:10:20;28.65;;;26.00;;
26690;SDS011;14307;51.718;8.938;2023-03-01T03:13:08;29.10;;;26.15;;
26690;SDS011;14307;51.718;8.938;2023-03-01T03:15:37;29.48;;;26.48;;
26690;SDS011;14307;51.718;8.938;2023-03-01T03:18:07;29.67;;;26.90;;
26690;SDS011;14307;51.718;8.938;2023-03-01T03:20:35;32.22;;;27.35;;
26690;SDS011;14307;51.718;8.938;2023-03-01T03:23:03;31.90;;;27.98;;
26690;SDS011;14307;51.718;8.938;2023-03-01T03:25:30;29.95;;;26.77;;
26690;SDS011;14307;51.718;8.938;2023-03-01T03:27:57;30.45;;;27.02;;
26690;SDS011;14307;51.718;8.938;2023-03-01T03:30:26;31.10;;;26.42;;
26690;SDS011;14307;51.718;8.938;2023-03-01T03:32:54;28.48;;;25.33;;
26690;SDS011;14307;51.718;8.938;2023-03-01T03:35:29;30.83;;;25.50;;
26690;SDS011;14307;51.718;8.938;2023-03-01T03:38:08;34.90;;;26.60;;
26690;SDS011;14307;51.718;8.938;2023-03-01T03:40:42;28.02;;;25.15;;
26690;SDS011;14307;51.718;8.938;2023-03-01T03:43:15;29.85;;;24.35;;
26690;SDS011;14307;51.718;8.938;2023-03-01T03:45:44;26.63;;;24.00;;
26690;SDS011;14307;51.718;8.938;2023-03-01T03:48:12;28.30;;;25.15;;
26690;SDS011;14307;51.718;8.938;2023-03-01T03:50:40;31.27;;;25.27;;
26690;SDS011;14307;51.718;8.938;2023-03-01T03:53:08;30.00;;;26.27;;
26690;SDS011;14307;51.718;8.938;2023-03-01T03:55:36;33.90;;;25.48;;
26690;SDS011;14307;51.718;8.938;2023-03-01T03:58:06;30.92;;;25.25;;
26690;SDS011;14307;51.718;8.938;2023-03-01T04:00:34;32.40;;;25.65;;
26690;SDS011;14307;51.718;8.938;2023-03-01T04:03:07;33.28;;;26.05;;
26690;SDS011;14307;51.718;8.938;2023-03-01T04:05:35;29.27;;;25.13;;
26690;SDS011;14307;51.718;8.938;2023-03-01T04:08:03;27.98;;;23.88;;
26690;SDS011;14307;51.718;8.938;2023-03-01T04:10:34;33.45;;;25.65;;
26690;SDS011;14307;51.718;8.938;2023-03-01T04:13:04;30.00;;;24.60;;
26690;SDS011;14307;51.718;8.938;2023-03-01T04:15:31;29.52;;;23.20;;
26690;SDS011;14307;51.718;8.938;2023-03-01T04:17:59;25.10;;;22.50;;
26690;SDS011;14307;51.718;8.938;2023-03-01T04:20:27;27.50;;;23.05;;
26690;SDS011;14307;51.718;8.938;2023-03-01T04:22:59;27.23;;;24.00;;
26690;SDS011;14307;51.718;8.938;2023-03-01T04:25:41;26.98;;;24.00;;
26690;SDS011;14307;51.718;8.938;2023-03-01T04:28:27;33.47;;;25.67;;
26690;SDS011;14307;51.718;8.938;2023-03-01T04:31:03;27.88;;;24.98;;
26690;SDS011;14307;51.718;8.938;2023-03-01T04:33:44;29.70;;;26.15;;
26690;SDS011;14307;51.718;8.938;2023-03-01T04:36:14;28.40;;;25.63;;
26690;SDS011;14307;51.718;8.938;2023-03-01T04:38:42;29.33;;;26.40;;
26690;SDS011;14307;51.718;8.938;2023-03-01T04:41:14;30.05;;;26.00;;
26690;SDS011;14307;51.718;8.938;2023-03-01T04:43:43;29.42;;;26.35;;
26690;SDS011;14307;51.718;8.938;2023-03-01T04:46:11;30.25;;;27.00;;
26690;SDS011;14307;51.718;8.938;2023-03-01T04:48:41;31.25;;;27.98;;
26690;SDS011;14307;51.718;8.938;2023-03-01T04:51:09;30.63;;;27.33;;
26690;SDS011;14307;51.718;8.938;2023-03-01T04:53:39;33.20;;;29.40;;
26690;SDS011;14307;51.718;8.938;2023-03-01T04:56:07;32.92;;;29.45;;
26690;SDS011;14307;51.718;8.938;2023-03-01T04:58:34;33.10;;;29.63;;
26690;SDS011;14307;51.718;8.938;2023-03-01T05:01:01;32.40;;;29.15;;
26690;SDS011;14307;51.718;8.938;2023-03-01T05:03:41;32.28;;;29.17;;
26690;SDS011;14307;51.718;8.938;2023-03-01T05:06:18;31.67;;;28.42;;
26690;SDS011;14307;51.718;8.938;2023-03-01T05:08:45;37.80;;;30.65;;
26690;SDS011;14307;51.718;8.938;2023-03-01T05:11:12;32.00;;;28.83;;
26690;SDS011;14307;51.718;8.938;2023-03-01T05:13:39;32.03;;;28.63;;
26690;SDS011;14307;51.718;8.938;2023-03-01T05:16:07;32.95;;;27.90;;
26690;SDS011;14307;51.718;8.938;2023-03-01T05:18:37;29.30;;;25.95;;
26690;SDS011;14307;51.718;8.938;2023-03-01T05:21:11;31.00;;;27.73;;
26690;SDS011;14307;51.718;8.938;2023-03-01T05:23:41;30.33;;;27.23;;
26690;SDS011;14307;51.718;8.938;2023-03-01T05:26:08;29.83;;;26.63;;
26690;SDS011;14307;51.718;8.938;2023-03-01T05:28:51;31.27;;;28.00;;
26690;SDS011;14307;51.718;8.938;2023-03-01T05:31:18;31.90;;;28.50;;
26690;SDS011;14307;51.718;8.938;2023-03-01T05:33:45;30.60;;;27.50;;
26690;SDS011;14307;51.718;8.938;2023-03-01T05:36:11;30.75;;;27.75;;
26690;SDS011;14307;51.718;8.938;2023-03-01T05:38:38;31.10;;;27.83;;
26690;SDS011;14307;51.718;8.938;2023-03-01T05:41:05;30.15;;;27.00;;
26690;SDS011;14307;51.718;8.938;2023-03-01T05:43:39;31.52;;;28.50;;
26690;SDS011;14307;51.718;8.938;2023-03-01T05:46:09;29.45;;;26.58;;
26690;SDS011;14307;51.718;8.938;2023-03-01T05:48:38;30.83;;;27.60;;
26690;SDS011;14307;51.718;8.938;2023-03-01T05:51:05;31.42;;;27.20;;
26690;SDS011;14307;51.718;8.938;2023-03-01T05:53:32;30.27;;;26.58;;
26690;SDS011;14307;51.718;8.938;2023-03-01T05:55:58;29.33;;;26.42;;
26690;SDS011;14307;51.718;8.938;2023-03-01T05:58:26;30.58;;;27.50;;
26690;SDS011;14307;51.718;8.938;2023-03-01T06:00:53;30.25;;;27.45;;
26690;SDS011;14307;51.718;8.938;2023-03-01T06:03:22;31.88;;;28.52;;
26690;SDS011;14307;51.718;8.938;2023-03-01T06:05:49;34.03;;;28.00;;
26690;SDS011;14307;51.718;8.938;2023-03-01T06:08:15;31.30;;;27.40;;
26690;SDS011;14307;51.718;8.938;2023-03-01T06:10:43;32.05;;;26.92;;
26690;SDS011;14307;51.718;8.938;2023-03-01T06:13:09;30.92;;;27.52;;
26690;SDS011;14307;51.718;8.938;2023-03-01T06:15:36;29.55;;;26.80;;
26690;SDS011;14307;51.718;8.938;2023-03-01T06:18:03;30.13;;;27.17;;
26690;SDS011;14307;51.718;8.938;2023-03-01T06:20:29;33.05;;;27.50;;
26690;SDS011;14307;51.718;8.938;2023-03-01T06:22:56;29.83;;;26.80;;
26690;SDS011;14307;51.718;8.938;2023-03-01T06:25:24;33.30;;;30.20;;
26690;SDS011;14307;51.718;8.938;2023-03-01T06:27:52;34.35;;;30.88;;
26690;SDS011;14307;51.718;8.938;2023-03-01T06:30:20;33.55;;;30.08;;
26690;SDS011;14307;51.718;8.938;2023-03-01T06:32:49;35.50;;;32.10;;
26690;SDS011;14307;51.718;8.938;2023-03-01T06:35:17;33.25;;;30.23;;
26690;SDS011;14307;51.718;8.938;2023-03-01T06:37:45;34.13;;;31.10;;
26690;SDS011;14307;51.718;8.938;2023-03-01T06:40:14;34.10;;;31.00;;
26690;SDS011;14307;51.718;8.938;2023-03-01T06:42:42;35.33;;;31.73;;
26690;SDS011;14307;51.718;8.938;2023-03-01T06:45:10;33.03;;;30.08;;
26690;SDS011;14307;51.718;8.938;2023-03-01T06:47:37;34.03;;;30.63;;
26690;SDS011;14307;51.718;8.938;2023-03-01T06:50:05;35.85;;;32.28;;
26690;SDS011;14307;51.718;8.938;2023-03-01T06:52:32;34.45;;;31.25;;
26690;SDS011;14307;51.718;8.938;2023-03-01T06:54:59;34.22;;;30.85;;
26690;SDS011;14307;51.718;8.938;2023-03-01T06:57:26;35.42;;;32.13;;
26690;SDS011;14307;51.718;8.938;2023-03-01T06:59:53;34.88;;;31.63;;
26690;SDS011;14307;51.718;8.938;2023-03-01T07:02:20;33.97;;;30.67;;
26690;SDS011;14307;51.718;8.938;2023-03-01T07:04:48;35.72;;;32.55;;
26690;SDS011;14307;51.718;8.938;2023-03-01T07:07:18;35.75;;;32.42;;
26690;SDS011;14307;51.718;8.938;2023-03-01T07:09:46;37.10;;;33.13;;
26690;SDS011;14307;51.718;8.938;2023-03-01T07:12:14;35.80;;;32.78;;
26690;SDS011;14307;51.718;8.938;2023-03-01T07:14:41;36.17;;;32.85;;
26690;SDS011;14307;51.718;8.938;2023-03-01T07:17:09;36.58;;;33.05;;
26690;SDS011;14307;51.718;8.938;2023-03-01T07:19:36;36.72;;;33.38;;
26690;SDS011;14307;51.718;8.938;2023-03-01T07:22:03;35.30;;;32.10;;
26690;SDS011;14307;51.718;8.938;2023-03-01T07:24:30;35.22;;;32.00;;
26690;SDS011;14307;51.718;8.938;2023-03-01T07:26:57;36.30;;;32.90;;
26690;SDS011;14307;51.718;8.938;2023-03-01T07:29:23;38.22;;;35.10;;
26690;SDS011;14307;51.718;8.938;2023-03-01T07:31:50;38.92;;;35.58;;
26690;SDS011;14307;51.718;8.938;2023-03-01T07:34:17;39.58;;;36.10;;
26690;SDS011;14307;51.718;8.938;2023-03-01T07:36:44;37.88;;;34.53;;
26690;SDS011;14307;51.718;8.938;2023-03-01T07:39:11;37.08;;;33.78;;
26690;SDS011;14307;51.718;8.938;2023-03-01T07:41:38;39.85;;;36.28;;
26690;SDS011;14307;51.718;8.938;2023-03-01T07:44:04;39.53;;;35.70;;
26690;SDS011;14307;51.718;8.938;2023-03-01T07:46:31;40.00;;;36.25;;
26690;SDS011;14307;51.718;8.938;2023-03-01T07:48:58;40.35;;;36.88;;
26690;SDS011;14307;51.718;8.938;2023-03-01T07:51:25;39.92;;;36.25;;
26690;SDS011;14307;51.718;8.938;2023-03-01T07:53:52;39.85;;;36.33;;
26690;SDS011;14307;51.718;8.938;2023-03-01T07:56:18;39.28;;;36.05;;
26690;SDS011;14307;51.718;8.938;2023-03-01T07:58:46;40.47;;;36.72;;
26690;SDS011;14307;51.718;8.938;2023-03-01T08:01:17;38.67;;;35.30;;
26690;SDS011;14307;51.718;8.938;2023-03-01T08:03:46;39.53;;;36.10;;
26690;SDS011;14307;51.718;8.938;2023-03-01T08:06:14;39.05;;;35.67;;
26690;SDS011;14307;51.718;8.938;2023-03-01T08:08:42;37.60;;;34.40;;
26690;SDS011;14307;51.718;8.938;2023-03-01T08:11:10;37.83;;;34.83;;
26690;SDS011;14307;51.718;8.938;2023-03-01T08:13:38;38.17;;;35.08;;
26690;SDS011;14307;51.718;8.938;2023-03-01T08:16:06;39.90;;;36.33;;
26690;SDS011;14307;51.718;8.938;2023-03-01T08:18:36;39.60;;;36.35;;
26690;SDS011;14307;51.718;8.938;2023-03-01T08:21:04;41.08;;;37.55;;
26690;SDS011;14307;51.718;8.938;2023-03-01T08:23:42;42.05;;;38.33;;
26690;SDS011;14307;51.718;8.938;2023-03-01T08:26:10;41.42;;;38.08;;
26690;SDS011;14307;51.718;8.938;2023-03-01T08:28:38;43.05;;;39.83;;
26690;SDS011;14307;51.718;8.938;2023-03-01T08:31:19;41.50;;;38.05;;
26690;SDS011;14307;51.718;8.938;2023-03-01T08:33:48;43.10;;;39.70;;
26690;SDS011;14307;51.718;8.938;2023-03-01T08:36:22;44.53;;;41.42;;
26690;SDS011;14307;51.718;8.938;2023-03-01T08:38:53;46.83;;;43.25;;
26690;SDS011;14307;51.718;8.938;2023-03-01T08:41:20;46.40;;;43.05;;
26690;SDS011;14307;51.718;8.938;2023-03-01T08:43:47;45.22;;;41.97;;
26690;SDS011;14307;51.718;8.938;2023-03-01T08:46:14;45.47;;;41.85;;
26690;SDS011;14307;51.718;8.938;2023-03-01T08:48:41;42.85;;;39.67;;
26690;SDS011;14307;51.718;8.938;2023-03-01T08:53:37;44.78;;;40.88;;
26690;SDS011;14307;51.718;8.938;2023-03-01T08:56:04;45.90;;;42.45;;
26690;SDS011;14307;51.718;8.938;2023-03-01T08:58:31;44.58;;;41.25;;
26690;SDS011;14307;51.718;8.938;2023-03-01T09:00:58;45.35;;;42.08;;
26690;SDS011;14307;51.718;8.938;2023-03-01T09:03:26;38.70;;;35.22;;
26690;SDS011;14307;51.718;8.938;2023-03-01T09:05:53;37.25;;;34.15;;
26690;SDS011;14307;51.718;8.938;2023-03-01T09:08:26;38.80;;;35.33;;
26690;SDS011;14307;51.718;8.938;2023-03-01T09:10:53;37.53;;;34.72;;
26690;SDS011;14307;51.718;8.938;2023-03-01T09:13:20;38.70;;;35.60;;
26690;SDS011;14307;51.718;8.938;2023-03-01T09:15:46;38.10;;;35.05;;
26690;SDS011;14307;51.718;8.938;2023-03-01T09:18:13;37.90;;;35.00;;
26690;SDS011;14307;51.718;8.938;2023-03-01T09:20:40;39.40;;;36.25;;
26690;SDS011;14307;51.718;8.938;2023-03-01T09:23:08;41.10;;;37.95;;
26690;SDS011;14307;51.718;8.938;2023-03-01T09:25:34;39.15;;;36.25;;
26690;SDS011;14307;51.718;8.938;2023-03-01T09:28:01;40.10;;;36.85;;
26690;SDS011;14307;51.718;8.938;2023-03-01T09:30:28;40.95;;;37.75;;
26690;SDS011;14307;51.718;8.938;2023-03-01T09:32:56;44.47;;;41.22;;
26690;SDS011;14307;51.718;8.938;2023-03-01T09:35:23;43.60;;;40.20;;
26690;SDS011;14307;51.718;8.938;2023-03-01T09:37:50;42.03;;;38.90;;
26690;SDS011;14307;51.718;8.938;2023-03-01T09:40:18;41.97;;;38.78;;
26690;SDS011;14307;51.718;8.938;2023-03-01T09:45:25;43.90;;;40.63;;
26690;SDS011;14307;51.718;8.938;2023-03-01T09:48:05;41.75;;;38.65;;
26690;SDS011;14307;51.718;8.938;2023-03-01T09:50:44;41.97;;;38.72;;
26690;SDS011;14307;51.718;8.938;2023-03-01T09:53:15;41.67;;;38.38;;
26690;SDS011;14307;51.718;8.938;2023-03-01T09:55:46;44.83;;;41.53;;
26690;SDS011;14307;51.718;8.938;2023-03-01T10:06:51;42.60;;;39.28;;
26690;SDS011;14307;51.718;8.938;2023-03-01T10:09:37;39.65;;;36.78;;
26690;SDS011;14307;51.718;8.938;2023-03-01T10:12:12;41.08;;;38.17;;
26690;SDS011;14307;51.718;8.938;2023-03-01T10:17:30;42.20;;;38.88;;
26690;SDS011;14307;51.718;8.938;2023-03-01T10:20:19;41.60;;;38.65;;
26690;SDS011;14307;51.718;8.938;2023-03-01T10:22:47;42.65;;;39.60;;
26690;SDS011;14307;51.718;8.938;2023-03-01T10:25:21;44.35;;;40.75;;
26690;SDS011;14307;51.718;8.938;2023-03-01T10:28:11;43.43;;;40.33;;
26690;SDS011;14307;51.718;8.938;2023-03-01T10:30:56;48.85;;;45.28;;
26690;SDS011;14307;51.718;8.938;2023-03-01T10:33:26;50.08;;;46.38;;
26690;SDS011;14307;51.718;8.938;2023-03-01T10:35:58;49.42;;;45.70;;
26690;SDS011;14307;51.718;8.938;2023-03-01T10:38:25;48.33;;;44.95;;
26690;SDS011;14307;51.718;8.938;2023-03-01T10:41:13;49.08;;;45.63;;
26690;SDS011;14307;51.718;8.938;2023-03-01T10:43:49;51.53;;;47.83;;
26690;SDS011;14307;51.718;8.938;2023-03-01T10:51:51;50.58;;;47.05;;
26690;SDS011;14307;51.718;8.938;2023-03-01T10:54:20;51.67;;;48.15;;
26690;SDS011;14307;51.718;8.938;2023-03-01T10:56:56;52.13;;;48.35;;
26690;SDS011;14307;51.718;8.938;2023-03-01T10:59:32;51.63;;;47.88;;
26690;SDS011;14307;51.718;8.938;2023-03-01T11:04:59;48.78;;;44.90;;
26690;SDS011;14307;51.718;8.938;2023-03-01T11:07:49;48.08;;;44.67;;
26690;SDS011;14307;51.718;8.938;2023-03-01T11:10:29;49.08;;;45.50;;
26690;SDS011;14307;51.718;8.938;2023-03-01T11:13:06;50.20;;;46.50;;
26690;SDS011;14307;51.718;8.938;2023-03-01T11:16:31;50.65;;;47.00;;
26690;SDS011;14307;51.718;8.938;2023-03-01T11:18:36;47.53;;;44.33;;
26690;SDS011;14307;51.718;8.938;2023-03-01T11:21:14;48.53;;;44.85;;
26690;SDS011;14307;51.718;8.938;2023-03-01T11:23:41;51.75;;;47.80;;
26690;SDS011;14307;51.718;8.938;2023-03-01T11:26:12;48.55;;;44.97;;
26690;SDS011;14307;51.718;8.938;2023-03-01T11:28:41;51.50;;;47.75;;
26690;SDS011;14307;51.718;8.938;2023-03-01T11:31:10;49.55;;;46.00;;
26690;SDS011;14307;51.718;8.938;2023-03-01T11:33:56;47.60;;;44.15;;
26690;SDS011;14307;51.718;8.938;2023-03-01T11:36:35;49.13;;;45.72;;
26690;SDS011;14307;51.718;8.938;2023-03-01T11:39:26;47.45;;;43.90;;
26690;SDS011;14307;51.718;8.938;2023-03-01T11:42:05;49.80;;;46.50;;
26690;SDS011;14307;51.718;8.938;2023-03-01T11:44:45;49.33;;;45.97;;
26690;SDS011;14307;51.718;8.938;2023-03-01T11:47:48;49.55;;;45.88;;
26690;SDS011;14307;51.718;8.938;2023-03-01T11:50:18;50.15;;;46.75;;
26690;SDS011;14307;51.718;8.938;2023-03-01T11:52:48;49.35;;;45.88;;
26690;SDS011;14307;51.718;8.938;2023-03-01T12:03:42;47.47;;;44.00;;
26690;SDS011;14307;51.718;8.938;2023-03-01T12:17:06;49.50;;;45.78;;
26690;SDS011;14307;51.718;8.938;2023-03-01T12:22:23;49.78;;;46.17;;
26690;SDS011;14307;51.718;8.938;2023-03-01T12:34:02;48.83;;;45.40;;
26690;SDS011;14307;51.718;8.938;2023-03-01T12:36:57;48.67;;;45.28;;
26690;SDS011;14307;51.718;8.938;2023-03-01T12:46:04;49.53;;;46.15;;
26690;SDS011;14307;51.718;8.938;2023-03-01T12:51:09;48.65;;;45.25;;
26690;SDS011;14307;51.718;8.938;2023-03-01T12:53:46;48.72;;;45.40;;
26690;SDS011;14307;51.718;8.938;2023-03-01T13:04:40;46.75;;;43.47;;
26690;SDS011;14307;51.718;8.938;2023-03-01T13:17:51;47.17;;;43.53;;
26690;SDS011;14307;51.718;8.938;2023-03-01T13:20:58;46.88;;;43.50;;
26690;SDS011;14307;51.718;8.938;2023-03-01T13:23:28;46.60;;;43.45;;
26690;SDS011;14307;51.718;8.938;2023-03-01T13:33:42;49.00;;;45.58;;
26690;SDS011;14307;51.718;8.938;2023-03-01T13:38:57;48.65;;;45.53;;
26690;SDS011;14307;51.718;8.938;2023-03-01T13:44:39;51.80;;;48.22;;
26690;SDS011;14307;51.718;8.938;2023-03-01T13:47:03;47.63;;;44.40;;
26690;SDS011;14307;51.718;8.938;2023-03-01T13:54:58;49.83;;;46.25;;
26690;SDS011;14307;51.718;8.938;2023-03-01T13:57:30;48.33;;;44.92;;
26690;SDS011;14307;51.718;8.938;2023-03-01T14:00:00;50.40;;;46.55;;
26690;SDS011;14307;51.718;8.938;2023-03-01T14:02:26;49.30;;;46.00;;
26690;SDS011;14307;51.718;8.938;2023-03-01T14:04:57;51.80;;;48.10;;
26690;SDS011;14307;51.718;8.938;2023-03-01T14:07:25;49.30;;;45.90;;
26690;SDS011;14307;51.718;8.938;2023-03-01T14:09:58;51.55;;;48.03;;
26690;SDS011;14307;51.718;8.938;2023-03-01T14:15:22;50.20;;;46.88;;
26690;SDS011;14307;51.718;8.938;2023-03-01T14:20:42;52.70;;;48.97;;
26690;SDS011;14307;51.718;8.938;2023-03-01T14:23:14;49.33;;;46.03;;
26690;SDS011;14307;51.718;8.938;2023-03-01T14:25:48;51.42;;;48.00;;
26690;SDS011;14307;51.718;8.938;2023-03-01T14:28:18;49.22;;;46.05;;
26690;SDS011;14307;51.718;8.938;2023-03-01T14:30:57;50.88;;;47.40;;
26690;SDS011;14307;51.718;8.938;2023-03-01T14:33:26;50.38;;;46.90;;
26690;SDS011;14307;51.718;8.938;2023-03-01T14:35:59;51.55;;;47.75;;
26690;SDS011;14307;51.718;8.938;2023-03-01T14:38:38;50.03;;;46.75;;
26690;SDS011;14307;51.718;8.938;2023-03-01T14:41:14;50.85;;;47.40;;
26690;SDS011;14307;51.718;8.938;2023-03-01T14:43:45;51.33;;;47.67;;
26690;SDS011;14307;51.718;8.938;2023-03-01T14:46:34;50.45;;;46.95;;
26690;SDS011;14307;51.718;8.938;2023-03-01T14:51:38;49.20;;;45.78;;
26690;SDS011;14307;51.718;8.938;2023-03-01T14:56:51;49.63;;;45.90;;
26690;SDS011;14307;51.718;8.938;2023-03-01T14:59:22;48.35;;;44.85;;
26690;SDS011;14307;51.718;8.938;2023-03-01T15:01:50;46.78;;;43.63;;
26690;SDS011;14307;51.718;8.938;2023-03-01T15:04:19;47.72;;;44.35;;
26690;SDS011;14307;51.718;8.938;2023-03-01T15:06:52;50.25;;;46.53;;
26690;SDS011;14307;51.718;8.938;2023-03-01T15:09:21;49.65;;;45.95;;
26690;SDS011;14307;51.718;8.938;2023-03-01T15:11:48;46.17;;;42.88;;
26690;SDS011;14307;51.718;8.938;2023-03-01T15:17:43;46.53;;;42.70;;
26690;SDS011;14307;51.718;8.938;2023-03-01T15:20:05;45.20;;;42.10;;
26690;SDS011;14307;51.718;8.938;2023-03-01T15:22:45;47.85;;;44.20;;
26690;SDS011;14307;51.718;8.938;2023-03-01T15:25:16;49.20;;;45.72;;
26690;SDS011;14307;51.718;8.938;2023-03-01T15:27:47;48.30;;;44.80;;
26690;SDS011;14307;51.718;8.938;2023-03-01T15:30:23;47.45;;;44.05;;
26690;SDS011;14307;51.718;8.938;2023-03-01T15:35:50;47.45;;;43.90;;
26690;SDS011;14307;51.718;8.938;2023-03-01T15:38:27;46.67;;;43.58;;
26690;SDS011;14307;51.718;8.938;2023-03-01T15:40:57;49.58;;;46.15;;
26690;SDS011;14307;51.718;8.938;2023-03-01T15:43:42;50.42;;;46.47;;
26690;SDS011;14307;51.718;8.938;2023-03-01T15:49:21;48.58;;;45.10;;
26690;SDS011;14307;51.718;8.938;2023-03-01T15:51:55;50.45;;;46.75;;
26690;SDS011;14307;51.718;8.938;2023-03-01T15:54:24;49.53;;;46.08;;
26690;SDS011;14307;51.718;8.938;2023-03-01T15:56:52;48.08;;;44.70;;
26690;SDS011;14307;51.718;8.938;2023-03-01T15:59:19;47.38;;;43.92;;
26690;SDS011;14307;51.718;8.938;2023-03-01T16:01:48;50.13;;;46.60;;
26690;SDS011;14307;51.718;8.938;2023-03-01T16:04:16;52.10;;;48.65;;
26690;SDS011;14307;51.718;8.938;2023-03-01T16:06:52;49.65;;;46.33;;
26690;SDS011;14307;51.718;8.938;2023-03-01T16:09:23;51.60;;;48.25;;
26690;SDS011;14307;51.718;8.938;2023-03-01T16:11:51;51.08;;;47.67;;
26690;SDS011;14307;51.718;8.938;2023-03-01T16:14:19;46.92;;;43.92;;
26690;SDS011;14307;51.718;8.938;2023-03-01T16:16:47;49.13;;;45.92;;
26690;SDS011;14307;51.718;8.938;2023-03-01T16:19:14;47.95;;;44.83;;
26690;SDS011;14307;51.718;8.938;2023-03-01T16:21:41;48.65;;;45.60;;
26690;SDS011;14307;51.718;8.938;2023-03-01T16:24:09;48.40;;;45.10;;
26690;SDS011;14307;51.718;8.938;2023-03-01T16:26:36;55.33;;;52.03;;
26690;SDS011;14307;51.718;8.938;2023-03-01T16:29:04;53.83;;;50.35;;
26690;SDS011;14307;51.718;8.938;2023-03-01T16:31:31;49.50;;;46.30;;
26690;SDS011;14307;51.718;8.938;2023-03-01T16:33:59;49.88;;;46.53;;
26690;SDS011;14307;51.718;8.938;2023-03-01T16:36:26;43.45;;;40.42;;
26690;SDS011;14307;51.718;8.938;2023-03-01T16:38:54;39.97;;;37.17;;
26690;SDS011;14307;51.718;8.938;2023-03-01T16:41:23;40.28;;;37.38;;
26690;SDS011;14307;51.718;8.938;2023-03-01T16:43:50;41.60;;;38.50;;
26690;SDS011;14307;51.718;8.938;2023-03-01T16:46:19;39.65;;;36.70;;
26690;SDS011;14307;51.718;8.938;2023-03-01T16:48:49;44.55;;;41.17;;
26690;SDS011;14307;51.718;8.938;2023-03-01T16:51:17;40.78;;;37.95;;
26690;SDS011;14307;51.718;8.938;2023-03-01T16:53:44;46.15;;;42.55;;
26690;SDS011;14307;51.718;8.938;2023-03-01T16:56:13;46.47;;;42.88;;
26690;SDS011;14307;51.718;8.938;2023-03-01T16:58:40;43.45;;;40.28;;
26690;SDS011;14307;51.718;8.938;2023-03-01T17:01:09;29.83;;;27.33;;